createdAt,value
2022-08-21T00:00:00.464Z,95482.22
2022-08-21T00:03:04.021Z,95482.56
2022-08-21T00:06:06.066Z,95483.41
2022-08-21T00:09:09.511Z,95477.31
2022-08-21T00:12:12.921Z,95470.50
2022-08-21T00:15:16.957Z,95470.84
2022-08-21T00:18:18.732Z,95468.94
2022-08-21T00:21:20.427Z,95472.13
2022-08-21T00:24:22.815Z,95469.88
2022-08-21T00:27:25.916Z,95470.50
2022-08-21T00:30:27.652Z,95470.75
2022-08-21T00:33:29.331Z,95462.97
2022-08-21T00:36:31.036Z,95457.94
2022-08-21T00:39:32.705Z,95466.13
2022-08-21T00:42:35.860Z,95464.69
2022-08-21T00:45:38.028Z,95466.06
2022-08-21T00:48:39.823Z,95459.31
2022-08-21T00:51:44.590Z,95458.84
2022-08-21T00:54:46.779Z,95459.22
2022-08-21T00:57:51.977Z,95465.81
2022-08-21T01:00:54.020Z,95455.31
2022-08-21T01:03:55.929Z,95453.19
2022-08-21T01:06:57.825Z,95457.56
2022-08-21T01:09:59.776Z,95454.84
2022-08-21T01:13:06.250Z,95452.19
2022-08-21T01:16:09.828Z,95455.06
2022-08-21T01:19:12.346Z,95459.41
2022-08-21T01:22:15.513Z,95455.50
2022-08-21T01:25:18.165Z,95456.09
2022-08-21T01:28:20.295Z,95453.63
2022-08-21T01:31:26.060Z,95457.44
2022-08-21T01:34:28.199Z,95455.84
2022-08-21T01:37:31.408Z,95439.41
2022-08-21T01:40:33.155Z,95447.94
2022-08-21T01:43:39.596Z,95446.00
2022-08-21T01:46:41.739Z,95438.41
2022-08-21T01:49:43.787Z,95446.25
2022-08-21T01:52:47.112Z,95441.47
2022-08-21T01:55:48.825Z,95433.38
2022-08-21T01:58:50.918Z,95429.66
2022-08-21T02:01:52.995Z,95425.47
2022-08-21T02:04:54.674Z,95423.19
2022-08-21T02:07:57.803Z,95430.28
2022-08-21T02:10:59.730Z,95428.94
2022-08-21T02:14:01.442Z,95424.41
2022-08-21T02:17:08.783Z,95417.84
2022-08-21T02:20:12.325Z,95421.53
2022-08-21T02:23:15.929Z,95417.09
2022-08-21T02:26:18.158Z,95416.56
2022-08-21T02:29:22.796Z,95414.88
2022-08-21T02:32:24.921Z,95415.28
2022-08-21T02:35:26.651Z,95406.44
2022-08-21T02:38:30.804Z,95411.47
2022-08-21T02:41:32.457Z,95411.72
2022-08-21T02:44:34.565Z,95414.81
2022-08-21T02:47:36.841Z,95415.28
2022-08-21T02:50:40.256Z,95418.53
2022-08-21T02:53:43.349Z,95413.75
2022-08-21T02:56:45.112Z,95404.63
2022-08-21T02:59:46.777Z,95403.69
2022-08-21T03:02:48.572Z,95407.47
2022-08-21T03:05:50.232Z,95403.88
2022-08-21T03:08:53.246Z,95406.13
2022-08-21T03:11:54.979Z,95412.34
2022-08-21T03:14:56.686Z,95407.97
2022-08-21T03:17:58.418Z,95402.09
2022-08-21T03:21:00.099Z,95406.03
2022-08-21T03:24:04.288Z,95407.88
2022-08-21T03:27:09.477Z,95405.16
2022-08-21T03:30:12.222Z,95405.94
2022-08-21T03:33:15.425Z,95405.94
2022-08-21T03:36:17.469Z,95407.88
2022-08-21T03:39:20.569Z,95405.59
2022-08-21T03:42:22.593Z,95401.41
2022-08-21T03:45:24.291Z,95407.88
2022-08-21T03:48:25.988Z,95415.22
2022-08-21T03:51:27.671Z,95409.84
2022-08-21T03:54:30.760Z,95412.69
2022-08-21T03:57:32.445Z,95419.25
2022-08-21T04:00:34.166Z,95418.81
2022-08-21T04:03:36.994Z,95423.41
2022-08-21T04:06:38.690Z,95416.75
2022-08-21T04:09:41.784Z,95426.94
2022-08-21T04:12:43.719Z,95426.59
2022-08-21T04:15:45.439Z,95419.41
2022-08-21T04:18:47.338Z,95424.09
2022-08-21T04:21:49.007Z,95430.47
2022-08-21T04:24:55.550Z,95432.94
2022-08-21T04:27:57.355Z,95432.09
2022-08-21T04:30:59.040Z,95439.50
2022-08-21T04:34:00.753Z,95443.59
2022-08-21T04:37:02.386Z,95437.38
2022-08-21T04:40:07.085Z,95451.28
2022-08-21T04:43:12.969Z,95443.59
2022-08-21T04:46:14.748Z,95450.09
2022-08-21T04:49:16.443Z,95454.94
2022-08-21T04:52:20.000Z,95458.41
2022-08-21T04:55:23.757Z,95457.88
2022-08-21T04:58:26.899Z,95467.91
2022-08-21T05:01:30.358Z,95461.47
2022-08-21T05:04:37.740Z,95465.88
2022-08-21T05:07:42.803Z,95470.50
2022-08-21T05:10:46.329Z,95469.59
2022-08-21T05:13:52.359Z,95472.25
2022-08-21T05:16:59.583Z,95472.53
2022-08-21T05:20:01.484Z,95482.66
2022-08-21T05:23:06.966Z,95477.41
2022-08-21T05:26:18.671Z,95477.84
2022-08-21T05:29:20.993Z,95479.13
2022-08-21T05:32:23.843Z,95491.03
2022-08-21T05:35:25.953Z,95484.16
2022-08-21T05:38:27.799Z,95474.53
2022-08-21T05:41:31.033Z,95489.97
2022-08-21T05:44:36.149Z,95484.03
2022-08-21T05:47:38.111Z,95491.25
2022-08-21T05:50:39.848Z,95503.25
2022-08-21T05:53:41.899Z,95489.34
2022-08-21T05:56:44.978Z,95494.81
2022-08-21T05:59:46.670Z,95493.13
2022-08-21T06:02:48.316Z,95491.75
2022-08-21T06:05:50.180Z,95496.06
2022-08-21T06:08:51.808Z,95508.53
2022-08-21T06:11:54.929Z,95501.78
2022-08-21T06:14:56.595Z,95489.81
2022-08-21T06:17:58.290Z,95497.06
2022-08-21T06:20:59.998Z,95499.44
2022-08-21T06:24:02.878Z,95507.50
2022-08-21T06:27:07.061Z,95512.78
2022-08-21T06:30:11.631Z,95511.41
2022-08-21T06:33:13.596Z,95502.13
2022-08-21T06:36:20.435Z,95517.53
2022-08-21T06:39:25.516Z,95507.81
2022-08-21T06:42:33.831Z,95506.13
2022-08-21T06:45:36.231Z,95506.53
2022-08-21T06:48:37.929Z,95508.50
2022-08-21T06:51:39.952Z,95507.31
2022-08-21T06:54:42.165Z,95517.97
2022-08-21T06:57:52.413Z,95517.53
2022-08-21T07:00:58.741Z,95509.06
2022-08-21T07:04:02.646Z,95509.84
2022-08-21T07:07:04.473Z,95511.72
2022-08-21T07:10:06.398Z,95514.88
2022-08-21T07:13:09.800Z,95508.84
2022-08-21T07:16:11.656Z,95517.53
2022-08-21T07:19:13.531Z,95515.63
2022-08-21T07:22:17.124Z,95519.50
2022-08-21T07:25:18.898Z,95512.91
2022-08-21T07:28:22.086Z,95514.63
2022-08-21T07:31:24.516Z,95518.34
2022-08-21T07:34:26.230Z,95510.13
2022-08-21T07:37:27.949Z,95513.53
2022-08-21T07:40:29.721Z,95501.00
2022-08-21T07:43:32.794Z,95503.16
2022-08-21T07:46:34.634Z,95499.63
2022-08-21T07:49:36.399Z,95511.16
2022-08-21T07:52:38.072Z,95506.72
2022-08-21T07:55:40.081Z,95509.38
2022-08-21T07:58:43.134Z,95509.03
2022-08-21T08:01:44.847Z,95505.03
2022-08-21T08:04:50.720Z,95502.63
2022-08-21T08:07:53.606Z,95501.31
2022-08-21T08:10:57.739Z,95510.69
2022-08-21T08:14:01.862Z,95504.25
2022-08-21T08:17:03.866Z,95501.78
2022-08-21T08:20:06.236Z,95514.75
2022-08-21T08:23:08.015Z,95502.91
2022-08-21T08:26:09.708Z,95505.13
2022-08-21T08:29:12.765Z,95490.72
2022-08-21T08:32:14.577Z,95508.44
2022-08-21T08:35:16.493Z,95497.63
2022-08-21T08:38:19.681Z,95505.25
2022-08-21T08:41:22.856Z,95497.41
2022-08-21T08:44:26.093Z,95504.75
2022-08-21T08:47:33.544Z,95498.53
2022-08-21T08:50:40.158Z,95499.72
2022-08-21T08:53:46.443Z,95501.00
2022-08-21T08:56:48.434Z,95498.00
2022-08-21T08:59:52.452Z,95499.78
2022-08-21T09:02:57.831Z,95501.16
2022-08-21T09:06:04.256Z,95501.84
2022-08-21T09:09:13.471Z,95500.75
2022-08-21T09:12:17.937Z,95504.13
2022-08-21T09:15:29.226Z,95506.47
2022-08-21T09:18:38.755Z,95506.28
2022-08-21T09:21:44.146Z,95504.22
2022-08-21T09:24:52.229Z,95506.44
2022-08-21T09:27:54.081Z,95499.94
2022-08-21T09:30:57.269Z,95499.75
2022-08-21T09:33:59.449Z,95502.75
2022-08-21T09:37:01.365Z,95495.00
2022-08-21T09:40:16.026Z,95498.69
2022-08-21T09:43:18.870Z,95487.03
2022-08-21T09:46:23.181Z,95481.63
2022-08-21T09:49:29.040Z,95480.47
2022-08-21T09:52:30.734Z,95483.34
2022-08-21T09:55:34.216Z,95492.97
2022-08-21T09:58:37.105Z,95489.44
2022-08-21T10:01:44.356Z,95484.13
2022-08-21T10:04:50.968Z,95482.50
2022-08-21T10:07:54.469Z,95490.13
2022-08-21T10:10:58.050Z,95488.31
2022-08-21T10:14:04.974Z,95484.31
2022-08-21T10:17:13.816Z,95490.69
2022-08-21T10:20:18.212Z,95488.25
2022-08-21T10:23:28.122Z,95495.25
2022-08-21T10:26:37.528Z,95487.28
2022-08-21T10:29:43.868Z,95493.31
2022-08-21T10:32:57.875Z,95498.81
2022-08-21T10:36:15.388Z,95495.09
2022-08-21T10:39:35.216Z,95494.97
2022-08-21T10:42:41.236Z,95495.75
2022-08-21T10:45:49.837Z,95487.63
2022-08-21T10:48:55.871Z,95478.78
2022-08-21T10:52:10.731Z,95477.03
2022-08-21T10:55:15.196Z,95470.78
2022-08-21T10:58:20.062Z,95477.81
2022-08-21T11:01:25.473Z,95475.81
2022-08-21T11:04:39.648Z,95466.50
2022-08-21T11:07:54.390Z,95462.56
2022-08-21T11:11:01.238Z,95459.28
2022-08-21T11:14:05.535Z,95468.50
2022-08-21T11:17:12.031Z,95466.63
2022-08-21T11:20:19.039Z,95455.88
2022-08-21T11:23:24.354Z,95450.66
2022-08-21T11:26:29.780Z,95443.88
2022-08-21T11:29:34.692Z,95438.47
2022-08-21T11:32:45.660Z,95446.75
2022-08-21T11:35:53.048Z,95441.75
2022-08-21T11:38:58.181Z,95431.72
2022-08-21T11:42:09.039Z,95427.72
2022-08-21T11:45:17.681Z,95426.47
2022-08-21T11:48:32.402Z,95424.75
2022-08-21T11:51:39.300Z,95422.94
2022-08-21T11:54:44.583Z,95421.75
2022-08-21T11:57:50.976Z,95409.06
2022-08-21T12:00:55.019Z,95418.44
2022-08-21T12:04:01.089Z,95413.53
2022-08-21T12:07:13.308Z,95420.47
2022-08-21T12:10:17.117Z,95412.88
2022-08-21T12:13:40.638Z,95401.56
2022-08-21T12:16:45.284Z,95404.66
2022-08-21T12:19:57.668Z,95419.63
2022-08-21T12:23:05.921Z,95407.75
2022-08-21T12:26:32.023Z,95399.84
2022-08-21T12:29:36.676Z,95397.53
2022-08-21T12:32:44.387Z,95391.72
2022-08-21T12:35:47.966Z,95386.25
2022-08-21T12:38:53.536Z,95378.63
2022-08-21T12:42:01.781Z,95381.97
2022-08-21T12:45:06.336Z,95376.16
2022-08-21T12:48:09.956Z,95383.78
2022-08-21T12:51:13.272Z,95379.50
2022-08-21T12:54:24.483Z,95374.47
2022-08-21T12:57:28.673Z,95370.66
2022-08-21T13:00:30.696Z,95370.94
2022-08-21T13:03:32.536Z,95361.72
2022-08-21T13:06:39.293Z,95361.25
2022-08-21T13:09:45.202Z,95372.94
2022-08-21T13:12:47.308Z,95361.94
2022-08-21T13:15:49.082Z,95360.72
2022-08-21T13:18:55.624Z,95368.06
2022-08-21T13:21:58.615Z,95364.53
2022-08-21T13:25:07.241Z,95357.66
2022-08-21T13:28:10.295Z,95362.88
2022-08-21T13:31:12.011Z,95372.50
2022-08-21T13:34:15.076Z,95368.66
2022-08-21T13:37:16.875Z,95366.97
2022-08-21T13:40:24.621Z,95370.00
2022-08-21T13:43:27.726Z,95377.13
2022-08-21T13:46:31.634Z,95373.03
2022-08-21T13:49:35.052Z,95360.53
2022-08-21T13:52:47.255Z,95361.94
2022-08-21T13:55:52.348Z,95365.75
2022-08-21T13:58:54.855Z,95355.97
2022-08-21T14:01:59.057Z,95345.00
2022-08-21T14:05:02.197Z,95347.56
2022-08-21T14:08:06.429Z,95344.53
2022-08-21T14:11:11.973Z,95342.13
2022-08-21T14:14:20.841Z,95333.16
2022-08-21T14:17:31.744Z,95334.44
2022-08-21T14:20:36.113Z,95335.41
2022-08-21T14:23:37.846Z,95331.34
2022-08-21T14:26:47.194Z,95340.50
2022-08-21T14:29:48.974Z,95345.69
2022-08-21T14:32:51.390Z,95341.22
2022-08-21T14:35:53.056Z,95348.47
2022-08-21T14:38:54.744Z,95358.13
2022-08-21T14:41:58.692Z,95345.91
2022-08-21T14:45:15.391Z,95346.84
2022-08-21T14:48:19.263Z,95336.31
2022-08-21T14:51:21.143Z,95341.63
2022-08-21T14:54:28.117Z,95346.59
2022-08-21T14:57:37.350Z,95343.84
2022-08-21T15:00:39.028Z,95344.56
2022-08-21T15:03:40.762Z,95349.25
2022-08-21T15:06:42.439Z,95353.06
2022-08-21T15:09:44.143Z,95351.69
2022-08-21T15:12:47.249Z,95354.91
2022-08-21T15:15:49.509Z,95352.84
2022-08-21T15:18:51.217Z,95349.97
2022-08-21T15:21:52.966Z,95345.91
2022-08-21T15:24:54.762Z,95345.97
2022-08-21T15:27:58.208Z,95353.47
2022-08-21T15:31:00.394Z,95355.63
2022-08-21T15:34:02.098Z,95354.41
2022-08-21T15:37:03.971Z,95363.28
2022-08-21T15:40:06.654Z,95359.00
2022-08-21T15:43:17.332Z,95356.88
2022-08-21T15:46:21.048Z,95351.19
2022-08-21T15:49:22.768Z,95351.59
2022-08-21T15:52:24.480Z,95350.06
2022-08-21T15:55:26.215Z,95357.41
2022-08-21T15:58:29.272Z,95352.25
2022-08-21T16:01:44.385Z,95353.13
2022-08-21T16:04:46.742Z,95347.03
2022-08-21T16:07:48.996Z,95344.88
2022-08-21T16:10:51.797Z,95340.63
2022-08-21T16:13:56.985Z,95347.94
2022-08-21T16:16:59.011Z,95344.41
2022-08-21T16:20:01.412Z,95342.91
2022-08-21T16:23:03.156Z,95340.03
2022-08-21T16:26:05.905Z,95339.22
2022-08-21T16:29:11.425Z,95335.41
2022-08-21T16:32:14.453Z,95339.06
2022-08-21T16:35:17.765Z,95332.50
2022-08-21T16:38:19.912Z,95338.19
2022-08-21T16:41:22.760Z,95330.03
2022-08-21T16:44:25.840Z,95337.50
2022-08-21T16:47:31.916Z,95323.91
2022-08-21T16:50:33.586Z,95335.34
2022-08-21T16:53:35.300Z,95321.56
2022-08-21T16:56:39.746Z,95321.69
2022-08-21T16:59:43.673Z,95322.91
2022-08-21T17:02:47.188Z,95314.06
2022-08-21T17:05:48.913Z,95311.75
2022-08-21T17:08:52.443Z,95312.38
2022-08-21T17:11:54.437Z,95320.72
2022-08-21T17:15:01.575Z,95320.88
2022-08-21T17:18:04.314Z,95321.78
2022-08-21T17:21:06.337Z,95314.50
2022-08-21T17:24:08.115Z,95314.44
2022-08-21T17:27:10.017Z,95319.34
2022-08-21T17:30:14.366Z,95318.72
2022-08-21T17:33:17.314Z,95326.38
2022-08-21T17:36:19.227Z,95322.06
2022-08-21T17:39:21.996Z,95326.06
2022-08-21T17:42:24.248Z,95327.13
2022-08-21T17:45:27.543Z,95328.34
2022-08-21T17:48:29.234Z,95325.00
2022-08-21T17:51:30.990Z,95318.44
2022-08-21T17:54:36.012Z,95326.00
2022-08-21T17:57:38.066Z,95324.47
2022-08-21T18:00:41.428Z,95325.19
2022-08-21T18:03:43.254Z,95334.94
2022-08-21T18:06:45.042Z,95333.13
2022-08-21T18:09:46.843Z,95327.78
2022-08-21T18:12:48.791Z,95336.13
2022-08-21T18:15:52.886Z,95338.22
2022-08-21T18:18:54.990Z,95337.75
2022-08-21T18:21:58.133Z,95349.31
2022-08-21T18:25:01.536Z,95345.03
2022-08-21T18:28:05.678Z,95347.78
2022-08-21T18:31:09.498Z,95347.13
2022-08-21T18:34:17.030Z,95357.03
2022-08-21T18:37:21.579Z,95358.25
2022-08-21T18:40:23.481Z,95357.94
2022-08-21T18:43:25.380Z,95359.59
2022-08-21T18:46:28.675Z,95362.22
2022-08-21T18:49:30.869Z,95362.53
2022-08-21T18:52:33.074Z,95357.75
2022-08-21T18:55:36.338Z,95364.84
2022-08-21T18:58:43.636Z,95358.72
2022-08-21T19:01:48.236Z,95357.03
2022-08-21T19:04:50.353Z,95356.38
2022-08-21T19:07:53.011Z,95354.41
2022-08-21T19:10:56.634Z,95354.31
2022-08-21T19:13:58.813Z,95353.53
2022-08-21T19:17:02.863Z,95345.88
2022-08-21T19:26:55.807Z,95346.53
2022-08-21T19:29:58.038Z,95349.28
2022-08-21T19:33:02.757Z,95346.31
2022-08-21T19:36:06.435Z,95352.50
2022-08-21T19:39:08.750Z,95361.34
2022-08-21T19:42:10.929Z,95350.78
2022-08-21T19:45:12.760Z,95360.66
2022-08-21T19:48:18.974Z,95357.38
2022-08-21T19:51:21.762Z,95350.47
2022-08-21T19:54:24.896Z,95355.28
2022-08-21T19:57:28.791Z,95352.34
2022-08-21T20:00:31.021Z,95346.31
2022-08-21T20:03:34.522Z,95342.34
2022-08-21T20:06:36.998Z,95348.88
2022-08-21T20:09:39.044Z,95349.31
2022-08-21T20:12:41.657Z,95351.94
2022-08-21T20:15:43.788Z,95346.69
2022-08-21T20:18:47.237Z,95352.81
2022-08-21T20:21:49.671Z,95354.03
2022-08-21T20:24:52.033Z,95344.19
2022-08-21T20:27:53.878Z,95359.03
2022-08-21T20:30:56.258Z,95364.56
2022-08-21T20:34:00.525Z,95366.16
2022-08-21T20:37:02.263Z,95357.47
2022-08-21T20:40:09.057Z,95356.44
2022-08-21T20:46:33.135Z,95358.75
2022-08-21T20:49:41.858Z,95360.13
2022-08-21T20:52:45.513Z,95358.91
2022-08-21T20:55:48.876Z,95364.28
2022-08-21T20:58:55.123Z,95353.63
2022-08-21T21:02:01.229Z,95354.41
2022-08-21T21:05:06.001Z,95354.66
2022-08-21T21:08:11.863Z,95344.53
2022-08-21T21:11:16.278Z,95344.31
2022-08-21T21:14:19.680Z,95351.00
2022-08-21T21:17:28.294Z,95355.06
2022-08-21T21:20:34.457Z,95351.47
2022-08-21T21:23:39.719Z,95350.78
2022-08-21T21:26:46.216Z,95355.97
2022-08-21T21:30:07.347Z,95353.88
2022-08-21T21:33:14.725Z,95356.06
2022-08-21T21:36:24.254Z,95349.69
2022-08-21T21:39:35.977Z,95347.31
2022-08-21T21:42:42.304Z,95347.19
2022-08-21T21:45:59.243Z,95351.22
2022-08-21T21:49:11.530Z,95347.59
2022-08-21T21:52:25.783Z,95351.09
2022-08-21T21:55:37.319Z,95361.78
2022-08-21T21:59:06.370Z,95351.38
2022-08-21T22:02:14.499Z,95353.38
2022-08-21T22:05:22.204Z,95360.03
2022-08-21T22:08:31.129Z,95355.00
2022-08-21T22:11:37.787Z,95357.28
2022-08-21T22:14:41.506Z,95348.34
2022-08-21T22:17:46.837Z,95348.69
2022-08-21T22:20:52.526Z,95354.25
2022-08-21T22:23:57.212Z,95359.28
2022-08-21T22:27:01.959Z,95354.31
2022-08-21T22:30:06.664Z,95353.00
2022-08-21T22:33:10.469Z,95358.97
2022-08-21T22:36:16.725Z,95360.25
2022-08-21T22:39:27.223Z,95357.81
2022-08-21T22:42:28.904Z,95349.00
2022-08-21T22:45:31.684Z,95352.25
2022-08-21T22:48:37.054Z,95355.44
2022-08-21T22:51:40.929Z,95353.63
2022-08-21T22:58:09.726Z,95346.41
2022-08-21T23:01:17.397Z,95337.16
2022-08-21T23:04:20.601Z,95342.97
2022-08-21T23:07:43.554Z,95338.94
2022-08-21T23:10:47.609Z,95337.47
2022-08-21T23:13:50.808Z,95329.41
2022-08-21T23:16:56.005Z,95322.38
2022-08-21T23:20:01.563Z,95317.59
2022-08-21T23:23:07.430Z,95319.38
2022-08-21T23:26:17.849Z,95322.94
2022-08-21T23:29:25.609Z,95319.34
2022-08-21T23:32:35.490Z,95315.84
2022-08-21T23:35:41.478Z,95307.19
2022-08-21T23:38:48.869Z,95303.06
2022-08-21T23:41:55.883Z,95306.84
2022-08-21T23:45:13.593Z,95312.38
2022-08-21T23:48:29.597Z,95306.13
2022-08-21T23:51:36.150Z,95308.25
2022-08-21T23:54:46.486Z,95304.75
2022-08-21T23:57:55.194Z,95301.47
